Shenandoah, Virginia
Current Conditions -  °F | °C
As of 12:15 AM on Saturday 22 Nov 2014 (Local Time) from K8W2 Reporting Station
Clear Clear  
Wind Chill: 17°   Ceiling: Unl
Heat Index: 17°   Visibility: 10mi
Dew Point: 13°   Wind: 0mph
Humidity: 83%   Direction: NA
Pressure: 30.49"   Gusts: NA
Location:  38.49°N, 78.63°W
Report Text: K8W2 220515Z AUTO 00000KT 10SM CLR M08/M11 A3049 RMK AO1 T10811106
Loading
Personal Weather Stations






























Interactive Weather Map New forecast layout! Learn more

10-Day Weather Forecast

Advertisements
Track Severe Weather on mobile